Terminal Aerodrome Forecast
Issued by NWS

Current Version | Previous Version | Text Only | Print | Product List | Glossary Off
Versions: 1 2 3 4 5 6 7 8 9 10 11 12 13 14 15 16 17 18 19 20 21 22 23 24

634
FTUS41 KILN 141131
TAFLCK
TAF
KLCK 141131Z 1412/1512 03005KT P6SM -SN SCT012 BKN026 OVC035
     FM141600 00000KT 5SM -FZRA BR OVC012
     FM142100 31004KT P6SM OVC012
     FM150100 33005KT P6SM OVC008=

USA.gov is the U.S. government's official web portal to all federal, state and local government web resources and services.